Time;durP1;ratioP1;P1;durP2;ratioP2;P2;SDS_P1;SDS_P2;PMS_P1;PMS_P2;Temp;Humidity;BMP_temperature;BMP_pressure;BME280_temperature;BME280_humidity;BME280_pressure;Samples;Min_cycle;Max_cycle;Signal;HPM_P1;HPM_P2
2023/04/07 00:01:31;;;;;;;;;;;9.10;99.90;;;;;;8385760;28;20018;-69
2023/04/07 00:05:33;;;;;;;;;;;9.10;99.90;;;;;;8396547;28;19931;-69
2023/04/07 00:09:35;;;;;;;;;;;9.10;99.90;;;;;;8377538;28;19975;-70
2023/04/07 00:13:37;;;;;;;;;;;9.10;99.90;;;;;;8374514;28;19925;-69
2023/04/07 00:17:39;;;;;;;;;;;9.10;99.90;;;;;;8409166;28;19930;-69
2023/04/07 00:21:40;;;;;;;;;;;9.10;99.90;;;;;;8362753;28;20377;-69
2023/04/07 00:25:42;;;;;;;;;;;9.10;99.90;;;;;;8390588;28;19964;-69
2023/04/07 00:29:45;;;;;;;;;;;9.10;99.90;;;;;;8370023;28;19964;-69
2023/04/07 00:33:48;;;;;;;;;;;9.10;99.90;;;;;;8355110;28;19925;-69
2023/04/07 00:37:49;;;;;;;;;;;9.10;99.90;;;;;;8376049;28;20336;-69
2023/04/07 00:41:51;;;;;;;;;;;9.10;99.90;;;;;;8391600;28;20366;-69
2023/04/07 00:45:53;;;;;;;;;;;9.10;99.90;;;;;;8371940;28;19928;-69
2023/04/07 00:49:55;;;;;;;;;;;9.10;99.90;;;;;;8366603;28;19932;-69
2023/04/07 00:53:57;;;;;;;;;;;9.00;99.90;;;;;;8376564;28;19929;-69
2023/04/07 00:57:58;;;;;;;;;;;9.00;99.90;;;;;;8368660;28;19924;-69
2023/04/07 01:02:09;;;;;;;;;;;9.00;99.90;;;;;;8386576;28;19929;-69
2023/04/07 01:06:13;;;;;;;;;;;9.00;99.90;;;;;;8390826;28;19933;-69
2023/04/07 01:10:18;;;;;;;;;;;9.00;99.90;;;;;;8378948;28;20369;-69
2023/04/07 01:14:19;;;;;;;;;;;9.00;99.90;;;;;;8374938;28;19925;-69
2023/04/07 01:18:28;;;;;;;;;;;9.00;99.90;;;;;;8374797;28;19925;-69
2023/04/07 01:22:35;;;;;;;;;;;9.00;99.90;;;;;;8378624;28;19967;-69
2023/04/07 01:26:38;;;;;;;;;;;9.00;99.90;;;;;;8366523;28;20283;-69
2023/04/07 01:30:40;;;;;;;;;;;9.00;99.90;;;;;;8376705;28;19959;-69
2023/04/07 01:34:42;;;;;;;;;;;9.00;99.90;;;;;;8352581;28;19932;-69
2023/04/07 01:38:45;;;;;;;;;;;9.00;99.90;;;;;;8389479;28;20348;-69
2023/04/07 01:42:47;;;;;;;;;;;9.00;99.90;;;;;;8364982;28;19925;-69
2023/04/07 01:46:52;;;;;;;;;;;9.00;99.90;;;;;;8358158;28;19925;-69
2023/04/07 01:50:54;;;;;;;;;;;9.00;99.90;;;;;;8373183;28;20030;-69
2023/04/07 01:54:56;;;;;;;;;;;9.00;99.90;;;;;;8385521;28;19931;-69
2023/04/07 01:58:58;;;;;;;;;;;9.00;99.90;;;;;;8369693;28;19971;-69
2023/04/07 02:03:19;;;;;;;;;;;9.00;99.90;;;;;;8368555;28;19932;-69
2023/04/07 02:07:34;;;;;;;;;;;9.00;99.90;;;;;;8372338;28;19925;-69
2023/04/07 02:11:36;;;;;;;;;;;9.00;99.90;;;;;;8365167;28;19924;-69
2023/04/07 02:15:39;;;;;;;;;;;9.00;99.90;;;;;;8382205;28;19943;-69
2023/04/07 02:19:41;;;;;;;;;;;9.00;99.90;;;;;;8363112;28;19924;-69
2023/04/07 02:23:43;;;;;;;;;;;9.00;99.90;;;;;;8385791;28;20455;-69
2023/04/07 02:27:44;;;;;;;;;;;9.00;99.90;;;;;;8356757;28;19960;-69
2023/04/07 02:31:46;;;;;;;;;;;9.00;99.90;;;;;;8396910;28;19968;-69
2023/04/07 02:35:48;;;;;;;;;;;9.00;99.90;;;;;;8398359;28;19925;-69
2023/04/07 02:39:49;;;;;;;;;;;9.00;99.90;;;;;;8375489;28;19981;-69
2023/04/07 02:43:51;;;;;;;;;;;9.00;99.90;;;;;;8381819;28;20001;-69
2023/04/07 02:47:52;;;;;;;;;;;9.00;99.90;;;;;;8362410;28;19950;-69
2023/04/07 02:51:54;;;;;;;;;;;9.00;99.90;;;;;;8388529;28;19930;-69
2023/04/07 02:55:56;;;;;;;;;;;9.00;99.90;;;;;;8366542;28;19924;-69
2023/04/07 02:59:58;;;;;;;;;;;9.00;99.90;;;;;;8378960;28;19936;-69
2023/04/07 03:03:59;;;;;;;;;;;9.00;99.90;;;;;;8367140;28;19972;-69
2023/04/07 03:08:01;;;;;;;;;;;9.00;99.90;;;;;;8391382;28;20600;-69
2023/04/07 03:12:03;;;;;;;;;;;9.00;99.90;;;;;;8344430;28;19971;-69
2023/04/07 03:21:08;;;;;;;;;;;9.00;99.90;;;;;;8373306;28;19969;-69
2023/04/07 03:25:10;;;;;;;;;;;9.00;99.90;;;;;;8391965;28;20299;-69
2023/04/07 03:29:11;;;;;;;;;;;9.00;99.90;;;;;;8372999;28;19924;-70
2023/04/07 03:33:13;;;;;;;;;;;9.00;99.90;;;;;;8370753;28;20385;-69
2023/04/07 03:37:14;;;;;;;;;;;8.90;99.90;;;;;;8355087;28;20004;-69
2023/04/07 03:41:16;;;;;;;;;;;8.90;99.90;;;;;;8347405;28;19932;-69
2023/04/07 03:45:18;;;;;;;;;;;9.00;99.90;;;;;;8363625;28;19939;-69
2023/04/07 03:49:20;;;;;;;;;;;9.00;99.90;;;;;;8379063;28;19929;-69
2023/04/07 03:53:21;;;;;;;;;;;9.00;99.90;;;;;;8366227;28;19982;-70
2023/04/07 03:57:23;;;;;;;;;;;9.00;99.90;;;;;;8364242;28;19936;-69
2023/04/07 04:01:25;;;;;;;;;;;8.90;99.90;;;;;;8376598;28;20325;-69
2023/04/07 04:05:26;;;;;;;;;;;8.90;99.90;;;;;;8379808;28;19935;-69
2023/04/07 04:09:28;;;;;;;;;;;8.90;99.90;;;;;;8378624;28;19952;-69
2023/04/07 04:13:31;;;;;;;;;;;8.90;99.90;;;;;;8378265;28;19925;-68
2023/04/07 04:17:32;;;;;;;;;;;8.90;99.90;;;;;;8392498;28;19935;-69
2023/04/07 04:21:34;;;;;;;;;;;8.90;99.90;;;;;;8357088;28;19924;-69
2023/04/07 04:25:38;;;;;;;;;;;8.90;99.90;;;;;;8388700;28;19924;-69
2023/04/07 04:29:40;;;;;;;;;;;8.90;99.90;;;;;;8366933;28;19924;-69
2023/04/07 04:33:41;;;;;;;;;;;8.90;99.90;;;;;;8392879;28;20357;-69
2023/04/07 04:37:43;;;;;;;;;;;8.90;99.90;;;;;;8377862;28;20283;-69
2023/04/07 04:41:45;;;;;;;;;;;8.90;99.90;;;;;;8352306;28;19929;-69
2023/04/07 04:45:46;;;;;;;;;;;8.90;99.90;;;;;;8368158;28;19931;-70
2023/04/07 04:49:48;;;;;;;;;;;8.90;99.90;;;;;;8367222;28;21096;-69
2023/04/07 04:53:49;;;;;;;;;;;8.90;99.90;;;;;;8363442;28;19935;-69
2023/04/07 04:57:51;;;;;;;;;;;8.90;99.90;;;;;;8386064;28;19968;-69
2023/04/07 05:01:53;;;;;;;;;;;8.90;99.90;;;;;;8394774;28;19975;-69
2023/04/07 05:05:55;;;;;;;;;;;8.90;99.90;;;;;;8387211;28;20292;-70
2023/04/07 05:09:56;;;;;;;;;;;8.90;99.90;;;;;;8387093;28;19924;-69
2023/04/07 05:13:58;;;;;;;;;;;8.90;99.90;;;;;;8402361;28;20015;-69
2023/04/07 05:18:00;;;;;;;;;;;8.90;99.90;;;;;;8389658;28;20568;-69
2023/04/07 05:22:01;;;;;;;;;;;8.90;99.90;;;;;;8388981;28;19932;-69
2023/04/07 05:26:03;;;;;;;;;;;8.90;99.90;;;;;;8399419;28;19933;-69
2023/04/07 05:30:05;;;;;;;;;;;8.90;99.90;;;;;;8392519;28;20365;-70
2023/04/07 05:34:07;;;;;;;;;;;8.90;99.90;;;;;;8375351;28;19925;-69
2023/04/07 05:38:10;;;;;;;;;;;8.90;99.90;;;;;;8381211;28;19972;-69
2023/04/07 05:42:12;;;;;;;;;;;9.00;99.90;;;;;;8401097;28;19924;-69
2023/04/07 05:46:13;;;;;;;;;;;9.00;99.90;;;;;;8389603;28;19924;-69
2023/04/07 05:50:16;;;;;;;;;;;9.00;99.90;;;;;;8378492;28;19932;-69
2023/04/07 05:54:17;;;;;;;;;;;9.00;99.90;;;;;;8359499;28;20361;-69
2023/04/07 05:58:19;;;;;;;;;;;9.00;99.90;;;;;;8375899;28;19930;-69
2023/04/07 06:02:21;;;;;;;;;;;9.00;99.90;;;;;;8374259;28;19936;-69
2023/04/07 06:06:22;;;;;;;;;;;9.10;99.90;;;;;;8334765;28;20016;-69
2023/04/07 06:10:24;;;;;;;;;;;9.10;99.90;;;;;;8348734;28;20442;-70
2023/04/07 06:14:26;;;;;;;;;;;9.10;99.90;;;;;;8361719;28;19975;-69
2023/04/07 06:18:27;;;;;;;;;;;9.10;99.90;;;;;;8369819;28;19963;-69
2023/04/07 06:22:29;;;;;;;;;;;9.10;99.90;;;;;;8382131;28;20404;-69
2023/04/07 06:26:31;;;;;;;;;;;9.10;99.90;;;;;;8366681;28;19936;-69
2023/04/07 06:30:33;;;;;;;;;;;9.10;99.90;;;;;;8362118;28;20016;-70
2023/04/07 06:34:35;;;;;;;;;;;9.10;99.90;;;;;;8362844;28;19925;-69
2023/04/07 06:38:37;;;;;;;;;;;9.10;99.90;;;;;;8353873;28;20398;-69
2023/04/07 06:42:38;;;;;;;;;;;9.10;99.90;;;;;;8352820;28;20380;-69
2023/04/07 06:46:41;;;;;;;;;;;9.10;99.90;;;;;;8354799;28;20363;-69
2023/04/07 06:50:47;;;;;;;;;;;9.20;99.90;;;;;;8343965;28;20080;-69
2023/04/07 06:54:49;;;;;;;;;;;9.20;99.90;;;;;;8352791;28;20291;-69
2023/04/07 06:58:51;;;;;;;;;;;9.20;99.90;;;;;;8350318;28;19931;-69
2023/04/07 07:02:52;;;;;;;;;;;9.30;99.90;;;;;;8367890;28;19939;-70
2023/04/07 07:06:54;;;;;;;;;;;9.30;99.90;;;;;;8376990;28;19932;-70
2023/04/07 07:10:56;;;;;;;;;;;9.30;99.90;;;;;;8387255;28;19939;-69
2023/04/07 07:14:58;;;;;;;;;;;9.40;99.90;;;;;;8389576;28;19935;-69
2023/04/07 07:18:59;;;;;;;;;;;9.40;99.90;;;;;;8376666;28;19932;-69
2023/04/07 07:23:01;;;;;;;;;;;9.40;99.90;;;;;;8381716;28;19935;-69
2023/04/07 07:27:03;;;;;;;;;;;9.50;99.90;;;;;;8372025;28;19975;-69
2023/04/07 07:31:14;;;;;;;;;;;9.50;99.90;;;;;;8388406;28;19925;-69
2023/04/07 07:35:16;;;;;;;;;;;9.50;99.90;;;;;;8384846;28;19929;-69
2023/04/07 07:39:18;;;;;;;;;;;9.50;99.90;;;;;;8400131;28;20034;-69
2023/04/07 07:43:20;;;;;;;;;;;9.60;99.90;;;;;;8353304;28;20660;-69
2023/04/07 07:47:21;;;;;;;;;;;9.60;99.90;;;;;;8376891;28;19929;-70
2023/04/07 07:51:23;;;;;;;;;;;9.60;99.90;;;;;;8382456;28;19935;-69
2023/04/07 07:55:25;;;;;;;;;;;9.60;99.90;;;;;;8372038;28;19972;-69
2023/04/07 07:59:26;;;;;;;;;;;9.60;99.90;;;;;;8390744;28;19976;-70
2023/04/07 08:03:28;;;;;;;;;;;9.70;99.90;;;;;;8349609;28;19928;-70
2023/04/07 08:07:31;;;;;;;;;;;9.80;99.90;;;;;;8379596;28;19978;-69
2023/04/07 08:11:32;;;;;;;;;;;9.90;99.90;;;;;;8362987;28;20022;-69
2023/04/07 08:15:34;;;;;;;;;;;10.00;99.90;;;;;;8377714;28;20300;-69
2023/04/07 08:19:36;;;;;;;;;;;10.00;99.90;;;;;;8377616;28;19929;-69
2023/04/07 08:23:38;;;;;;;;;;;9.90;99.90;;;;;;8398364;28;19924;-69
2023/04/07 08:27:39;;;;;;;;;;;9.90;99.90;;;;;;8385257;28;19924;-70
2023/04/07 08:31:41;;;;;;;;;;;9.80;99.90;;;;;;8372785;28;20032;-69
2023/04/07 08:35:43;;;;;;;;;;;9.80;99.90;;;;;;8376124;28;20338;-69
2023/04/07 08:39:44;;;;;;;;;;;9.80;99.90;;;;;;8358075;28;20351;-69
2023/04/07 08:43:48;;;;;;;;;;;9.80;99.90;;;;;;8374870;28;20383;-69
2023/04/07 08:47:53;;;;;;;;;;;9.80;99.90;;;;;;8374282;28;20388;-69
2023/04/07 08:51:55;;;;;;;;;;;9.80;99.90;;;;;;8376739;28;19924;-69
2023/04/07 08:55:57;;;;;;;;;;;9.80;99.90;;;;;;8391288;28;20376;-70
2023/04/07 09:00:04;;;;;;;;;;;9.80;99.90;;;;;;8376258;28;19928;-69
2023/04/07 09:04:07;;;;;;;;;;;9.90;99.90;;;;;;8375345;28;19925;-69
2023/04/07 09:08:08;;;;;;;;;;;9.90;99.90;;;;;;8371632;28;20007;-69
2023/04/07 09:12:10;;;;;;;;;;;10.00;99.90;;;;;;8364589;28;19976;-69
2023/04/07 09:16:13;;;;;;;;;;;10.00;99.90;;;;;;8374424;28;19931;-69
2023/04/07 09:20:15;;;;;;;;;;;10.20;99.90;;;;;;8378050;28;20346;-69
2023/04/07 09:24:25;;;;;;;;;;;10.30;99.90;;;;;;8370040;28;19975;-69
2023/04/07 09:28:46;;;;;;;;;;;10.40;99.90;;;;;;8369634;28;19951;-70
2023/04/07 09:32:47;;;;;;;;;;;10.50;99.90;;;;;;8379219;28;19925;-69
2023/04/07 09:36:49;;;;;;;;;;;10.70;99.90;;;;;;8356749;28;19932;-69
2023/04/07 09:41:03;;;;;;;;;;;10.80;99.90;;;;;;8391415;28;20011;-70
2023/04/07 09:45:05;;;;;;;;;;;10.80;99.90;;;;;;8374003;28;19971;-69
2023/04/07 09:49:07;;;;;;;;;;;10.80;99.90;;;;;;8390133;28;19933;-69
2023/04/07 09:53:09;;;;;;;;;;;10.90;99.90;;;;;;8383310;28;19931;-69
2023/04/07 09:57:12;;;;;;;;;;;10.90;99.90;;;;;;8376948;28;19925;-70
2023/04/07 10:01:16;;;;;;;;;;;10.90;99.90;;;;;;8392423;28;19931;-70
2023/04/07 10:05:20;;;;;;;;;;;10.90;99.90;;;;;;8392799;28;19924;-69
2023/04/07 10:09:23;;;;;;;;;;;10.90;99.90;;;;;;8376212;28;19929;-69
2023/04/07 10:13:25;;;;;;;;;;;10.90;99.90;;;;;;8374821;28;19933;-70
2023/04/07 10:17:27;;;;;;;;;;;10.90;99.90;;;;;;8378880;28;19932;-69
2023/04/07 10:21:30;;;;;;;;;;;10.80;99.90;;;;;;8405559;28;20036;-69
2023/04/07 10:25:35;;;;;;;;;;;10.70;99.90;;;;;;8370234;28;19943;-70
2023/04/07 10:29:40;;;;;;;;;;;10.70;99.90;;;;;;8372225;28;19995;-69
2023/04/07 10:33:46;;;;;;;;;;;10.80;99.90;;;;;;8377160;28;19967;-70
2023/04/07 10:38:12;;;;;;;;;;;10.90;99.90;;;;;;8394351;28;19931;-70
2023/04/07 10:42:33;;;;;;;;;;;11.00;99.90;;;;;;8365030;28;19924;-70
2023/04/07 10:46:44;;;;;;;;;;;11.00;99.90;;;;;;8392574;28;20011;-70
2023/04/07 10:51:06;;;;;;;;;;;11.00;99.90;;;;;;8392835;28;20343;-69
2023/04/07 10:55:27;;;;;;;;;;;10.90;99.90;;;;;;8367773;28;19924;-70
2023/04/07 10:59:29;;;;;;;;;;;10.90;99.90;;;;;;8377588;28;19931;-69
2023/04/07 11:03:33;;;;;;;;;;;10.90;99.90;;;;;;8386978;28;19931;-69
2023/04/07 11:07:45;;;;;;;;;;;11.00;99.90;;;;;;8365635;28;19924;-70
2023/04/07 11:11:47;;;;;;;;;;;11.10;99.90;;;;;;8386133;28;19940;-70
2023/04/07 11:15:50;;;;;;;;;;;11.20;99.90;;;;;;8370315;28;19924;-70
2023/04/07 11:19:52;;;;;;;;;;;11.20;99.90;;;;;;8381304;28;19994;-69
2023/04/07 11:23:54;;;;;;;;;;;11.20;99.90;;;;;;8383166;28;19924;-69
2023/04/07 11:27:56;;;;;;;;;;;11.30;99.90;;;;;;8373137;28;19932;-70
2023/04/07 11:31:58;;;;;;;;;;;11.50;99.90;;;;;;8365846;28;20015;-70
2023/04/07 11:36:01;;;;;;;;;;;11.60;99.90;;;;;;8369137;28;19967;-70
2023/04/07 11:40:03;;;;;;;;;;;11.60;99.90;;;;;;8369351;28;20019;-69
2023/04/07 11:44:09;;;;;;;;;;;11.70;99.90;;;;;;8371066;28;19939;-70
2023/04/07 11:48:27;;;;;;;;;;;11.70;99.90;;;;;;8361005;28;19932;-70
2023/04/07 11:52:39;;;;;;;;;;;11.90;99.90;;;;;;8359671;28;20076;-70
2023/04/07 11:56:42;;;;;;;;;;;12.00;99.90;;;;;;8371938;28;20308;-70
2023/04/07 12:00:54;;;;;;;;;;;12.20;99.90;;;;;;8335536;28;19959;-70
2023/04/07 12:04:56;;;;;;;;;;;12.20;99.90;;;;;;8338170;28;20046;-70
2023/04/07 12:08:58;;;;;;;;;;;12.10;99.90;;;;;;8366156;28;20385;-70
2023/04/07 12:13:01;;;;;;;;;;;11.90;99.90;;;;;;8360307;28;19932;-70
2023/04/07 12:17:02;;;;;;;;;;;11.80;99.90;;;;;;8353601;28;19932;-70
2023/04/07 12:21:04;;;;;;;;;;;11.80;99.90;;;;;;8355206;28;19931;-70
2023/04/07 12:25:06;;;;;;;;;;;11.70;99.90;;;;;;8353360;28;19929;-70
2023/04/07 12:29:08;;;;;;;;;;;11.70;99.90;;;;;;8339892;28;19973;-70
2023/04/07 12:33:10;;;;;;;;;;;11.70;99.90;;;;;;8354335;28;20035;-70
2023/04/07 12:37:11;;;;;;;;;;;11.70;99.90;;;;;;8355101;28;19940;-70
2023/04/07 12:41:13;;;;;;;;;;;11.80;99.90;;;;;;8348324;28;20043;-70
2023/04/07 12:45:15;;;;;;;;;;;11.80;99.90;;;;;;8355485;28;20437;-70
2023/04/07 12:49:17;;;;;;;;;;;11.80;99.90;;;;;;8367233;28;20456;-76
2023/04/07 12:53:18;;;;;;;;;;;11.70;99.90;;;;;;8353184;28;20415;-76
2023/04/07 12:57:20;;;;;;;;;;;11.70;99.90;;;;;;8346444;28;20415;-77
2023/04/07 13:01:22;;;;;;;;;;;11.60;99.90;;;;;;8364534;28;20019;-76
2023/04/07 13:05:23;;;;;;;;;;;11.60;99.90;;;;;;8365924;28;19931;-76
2023/04/07 13:09:25;;;;;;;;;;;11.60;99.90;;;;;;8367580;28;19925;-77
2023/04/07 13:13:27;;;;;;;;;;;11.70;99.90;;;;;;8373754;28;19931;-76
2023/04/07 13:17:29;;;;;;;;;;;11.70;99.90;;;;;;8369188;28;19928;-77
2023/04/07 13:21:31;;;;;;;;;;;11.70;99.90;;;;;;8343818;28;20262;-76
2023/04/07 13:25:45;;;;;;;;;;;11.70;99.90;;;;;;8365564;28;19924;-77
2023/04/07 13:29:47;;;;;;;;;;;11.60;99.90;;;;;;8363823;28;19924;-76
2023/04/07 13:33:49;;;;;;;;;;;11.60;99.90;;;;;;8350115;28;19931;-77
2023/04/07 13:37:51;;;;;;;;;;;11.60;99.90;;;;;;8387727;28;20604;-76
2023/04/07 13:41:53;;;;;;;;;;;11.60;99.90;;;;;;8375083;28;19936;-76
2023/04/07 13:45:55;;;;;;;;;;;11.60;99.90;;;;;;8366279;28;19952;-76
2023/04/07 13:49:57;;;;;;;;;;;11.60;99.90;;;;;;8351298;28;19924;-76
2023/04/07 13:53:59;;;;;;;;;;;11.60;99.90;;;;;;8353645;28;20420;-76
2023/04/07 13:58:00;;;;;;;;;;;11.70;99.90;;;;;;8372057;28;20456;-76
2023/04/07 14:02:02;;;;;;;;;;;11.80;99.90;;;;;;8364719;28;19925;-76
2023/04/07 14:06:04;;;;;;;;;;;11.90;99.90;;;;;;8367444;28;20385;-76
2023/04/07 14:10:06;;;;;;;;;;;12.00;99.90;;;;;;8357944;28;20798;-76
2023/04/07 14:14:10;;;;;;;;;;;12.00;99.90;;;;;;8368244;28;19931;-76
2023/04/07 14:18:12;;;;;;;;;;;12.00;99.90;;;;;;8370219;28;20019;-76
2023/04/07 14:22:14;;;;;;;;;;;11.90;99.90;;;;;;8365337;28;19936;-76
2023/04/07 14:26:15;;;;;;;;;;;11.90;99.90;;;;;;8367000;28;19929;-76
2023/04/07 14:30:17;;;;;;;;;;;11.80;99.90;;;;;;8367299;28;20046;-76
2023/04/07 14:34:19;;;;;;;;;;;11.80;99.90;;;;;;8369995;28;19929;-77
2023/04/07 14:38:23;;;;;;;;;;;11.70;99.90;;;;;;8366480;28;20324;-76
2023/04/07 14:42:24;;;;;;;;;;;11.70;99.90;;;;;;8368988;28;20376;-76
2023/04/07 14:46:26;;;;;;;;;;;11.70;99.90;;;;;;8366393;28;19974;-76
2023/04/07 14:50:30;;;;;;;;;;;11.70;99.90;;;;;;8362144;28;19933;-76
2023/04/07 14:54:32;;;;;;;;;;;11.70;99.90;;;;;;8360509;28;19975;-76
2023/04/07 14:58:36;;;;;;;;;;;11.70;99.90;;;;;;8365149;28;20335;-76
2023/04/07 15:02:38;;;;;;;;;;;11.70;99.90;;;;;;8368866;28;19928;-77
2023/04/07 15:06:41;;;;;;;;;;;11.60;99.90;;;;;;8361186;28;19924;-76
2023/04/07 15:10:43;;;;;;;;;;;11.60;99.90;;;;;;8363838;28;20051;-76
2023/04/07 15:14:45;;;;;;;;;;;11.50;99.90;;;;;;8350491;28;19928;-76
2023/04/07 15:18:47;;;;;;;;;;;11.50;99.90;;;;;;8349037;28;19935;-76
2023/04/07 15:22:48;;;;;;;;;;;11.50;99.90;;;;;;8359899;28;19959;-76
2023/04/07 15:26:50;;;;;;;;;;;11.50;99.90;;;;;;8352342;28;19927;-77
2023/04/07 15:30:51;;;;;;;;;;;11.50;99.90;;;;;;8359229;28;19929;-77
2023/04/07 15:34:53;;;;;;;;;;;11.50;99.90;;;;;;8365600;28;20284;-76
2023/04/07 15:38:55;;;;;;;;;;;11.50;99.90;;;;;;8364171;28;19932;-77
2023/04/07 15:42:57;;;;;;;;;;;11.40;99.90;;;;;;8364811;28;19929;-76
2023/04/07 15:46:58;;;;;;;;;;;11.40;99.90;;;;;;8365485;28;19983;-76
2023/04/07 15:51:00;;;;;;;;;;;11.30;99.90;;;;;;8361545;28;20572;-76
2023/04/07 15:55:02;;;;;;;;;;;11.20;99.90;;;;;;8360729;28;19971;-77
2023/04/07 15:59:03;;;;;;;;;;;11.10;99.90;;;;;;8363374;28;19991;-77
2023/04/07 16:03:05;;;;;;;;;;;11.10;99.90;;;;;;8350215;28;19931;-76
2023/04/07 16:07:07;;;;;;;;;;;11.00;99.90;;;;;;8349039;28;19928;-77
2023/04/07 16:11:08;;;;;;;;;;;10.80;99.90;;;;;;8366244;28;20052;-77
2023/04/07 16:15:10;;;;;;;;;;;10.70;99.90;;;;;;8366443;28;19975;-77
2023/04/07 16:19:13;;;;;;;;;;;10.70;99.90;;;;;;8367373;28;19933;-77
2023/04/07 16:23:14;;;;;;;;;;;10.70;99.90;;;;;;8342123;28;19971;-76
2023/04/07 16:27:16;;;;;;;;;;;10.60;99.90;;;;;;8347431;28;19932;-76
2023/04/07 16:31:18;;;;;;;;;;;10.60;99.90;;;;;;8367485;28;19971;-76
2023/04/07 16:35:20;;;;;;;;;;;10.60;99.90;;;;;;8369973;28;19925;-76
2023/04/07 16:39:21;;;;;;;;;;;10.60;99.90;;;;;;8349973;28;20031;-76
2023/04/07 16:43:25;;;;;;;;;;;10.60;99.90;;;;;;8366326;28;20261;-77
2023/04/07 16:47:28;;;;;;;;;;;10.60;99.90;;;;;;8364610;28;19948;-76
2023/04/07 16:51:30;;;;;;;;;;;10.60;99.90;;;;;;8368228;28;20464;-76
2023/04/07 16:55:34;;;;;;;;;;;10.60;99.90;;;;;;8376002;28;20019;-76
2023/04/07 16:59:36;;;;;;;;;;;10.60;99.90;;;;;;8374121;28;20758;-76
2023/04/07 17:03:38;;;;;;;;;;;10.60;99.90;;;;;;8363916;28;19979;-77
2023/04/07 17:07:40;;;;;;;;;;;10.60;99.90;;;;;;8364167;28;20427;-76
2023/04/07 17:11:41;;;;;;;;;;;10.60;99.90;;;;;;8366286;28;19995;-76
2023/04/07 17:15:43;;;;;;;;;;;10.60;99.90;;;;;;8368373;28;19944;-77
2023/04/07 17:19:45;;;;;;;;;;;10.60;99.90;;;;;;8379593;28;19925;-76
2023/04/07 17:23:47;;;;;;;;;;;10.60;99.90;;;;;;8360874;28;19925;-76
2023/04/07 17:27:49;;;;;;;;;;;10.60;99.90;;;;;;8356199;28;19978;-76
2023/04/07 17:31:50;;;;;;;;;;;10.50;99.90;;;;;;8388519;28;19928;-76
2023/04/07 17:35:52;;;;;;;;;;;10.50;99.90;;;;;;8386156;28;19935;-76
2023/04/07 17:39:54;;;;;;;;;;;10.40;99.90;;;;;;8368415;28;19951;-76
2023/04/07 17:43:55;;;;;;;;;;;10.40;99.90;;;;;;8355237;28;19928;-76
2023/04/07 17:47:59;;;;;;;;;;;10.40;99.90;;;;;;8358812;28;19957;-76
2023/04/07 17:52:01;;;;;;;;;;;10.40;99.90;;;;;;8370431;28;20368;-77
2023/04/07 17:56:03;;;;;;;;;;;10.40;99.90;;;;;;8387684;28;19932;-76
2023/04/07 18:00:05;;;;;;;;;;;10.40;99.90;;;;;;8375111;28;20043;-76
2023/04/07 18:04:07;;;;;;;;;;;10.50;99.90;;;;;;8366617;28;19932;-76
2023/04/07 18:08:09;;;;;;;;;;;10.50;99.90;;;;;;8367357;28;19925;-76
2023/04/07 18:12:11;;;;;;;;;;;10.50;99.90;;;;;;8361413;28;19991;-77
2023/04/07 18:16:15;;;;;;;;;;;10.40;99.90;;;;;;8343715;28;19925;-76
2023/04/07 18:20:19;;;;;;;;;;;10.40;99.90;;;;;;8380126;28;19932;-76
2023/04/07 18:24:33;;;;;;;;;;;10.40;99.90;;;;;;8359289;28;19929;-77
2023/04/07 18:28:34;;;;;;;;;;;10.40;99.90;;;;;;8356521;28;19924;-76
2023/04/07 18:32:36;;;;;;;;;;;10.40;99.90;;;;;;8363200;28;20020;-76
2023/04/07 18:36:39;;;;;;;;;;;10.40;99.90;;;;;;8365944;28;21709;-76
2023/04/07 18:40:41;;;;;;;;;;;10.40;99.90;;;;;;8363587;28;19925;-77
2023/04/07 18:44:43;;;;;;;;;;;10.40;99.90;;;;;;8367675;28;19928;-76
2023/04/07 18:48:44;;;;;;;;;;;10.40;99.90;;;;;;8365230;28;19933;-77
2023/04/07 18:52:46;;;;;;;;;;;10.40;99.90;;;;;;8365348;28;19931;-76
2023/04/07 18:56:48;;;;;;;;;;;10.30;99.90;;;;;;8365908;28;19967;-77
2023/04/07 19:00:51;;;;;;;;;;;10.30;99.90;;;;;;8362938;28;19959;-77
2023/04/07 19:04:53;;;;;;;;;;;10.30;99.90;;;;;;8363146;28;19928;-77
2023/04/07 19:08:55;;;;;;;;;;;10.30;99.90;;;;;;8361853;28;19925;-77
2023/04/07 19:12:56;;;;;;;;;;;10.40;99.90;;;;;;8371042;28;19940;-77
2023/04/07 19:16:58;;;;;;;;;;;10.40;99.90;;;;;;8365800;28;19936;-77
2023/04/07 19:21:00;;;;;;;;;;;10.30;99.90;;;;;;8374438;28;19971;-77
2023/04/07 19:25:02;;;;;;;;;;;10.30;99.90;;;;;;8364241;28;20305;-77
2023/04/07 19:29:03;;;;;;;;;;;10.30;99.90;;;;;;8360482;28;19929;-77
2023/04/07 19:33:05;;;;;;;;;;;10.30;99.90;;;;;;8383477;28;20437;-77
2023/04/07 19:37:07;;;;;;;;;;;10.30;99.90;;;;;;8339908;28;19924;-77
2023/04/07 19:41:09;;;;;;;;;;;10.30;99.90;;;;;;8363393;28;19951;-76
2023/04/07 19:45:10;;;;;;;;;;;10.30;99.90;;;;;;8367202;28;19964;-77
2023/04/07 19:49:12;;;;;;;;;;;10.20;99.90;;;;;;8347666;28;20369;-76
2023/04/07 19:53:17;;;;;;;;;;;10.20;99.90;;;;;;8361602;28;19928;-77
2023/04/07 19:57:18;;;;;;;;;;;10.20;99.90;;;;;;8345989;28;20373;-77
2023/04/07 20:01:20;;;;;;;;;;;10.20;99.90;;;;;;8362339;28;19940;-77
2023/04/07 20:05:21;;;;;;;;;;;10.20;99.90;;;;;;8366093;28;19933;-77
2023/04/07 20:09:25;;;;;;;;;;;10.10;99.90;;;;;;8372998;28;19960;-77
2023/04/07 20:13:28;;;;;;;;;;;10.10;99.90;;;;;;8364618;28;19925;-77
2023/04/07 20:17:31;;;;;;;;;;;10.10;99.90;;;;;;8367977;28;19932;-77
2023/04/07 20:21:33;;;;;;;;;;;10.10;99.90;;;;;;8364044;28;20019;-77
2023/04/07 20:25:35;;;;;;;;;;;10.10;99.90;;;;;;8360588;28;19928;-77
2023/04/07 20:29:36;;;;;;;;;;;10.10;99.90;;;;;;8367109;28;19990;-77
2023/04/07 20:33:38;;;;;;;;;;;10.10;99.90;;;;;;8361316;28;19936;-77
2023/04/07 20:37:40;;;;;;;;;;;10.10;99.90;;;;;;8357954;28;19959;-77
2023/04/07 20:41:43;;;;;;;;;;;10.10;99.90;;;;;;8366821;28;19928;-77
2023/04/07 20:45:46;;;;;;;;;;;10.10;99.90;;;;;;8363144;28;20490;-77
2023/04/07 20:49:48;;;;;;;;;;;10.10;99.90;;;;;;8363458;28;20269;-77
2023/04/07 20:53:49;;;;;;;;;;;10.10;99.90;;;;;;8348378;28;19924;-77
2023/04/07 20:57:53;;;;;;;;;;;10.10;99.90;;;;;;8365192;28;19925;-77
2023/04/07 21:01:55;;;;;;;;;;;10.10;99.90;;;;;;8360441;28;20383;-77
2023/04/07 21:05:57;;;;;;;;;;;10.10;99.90;;;;;;8401521;28;19925;-77
2023/04/07 21:09:58;;;;;;;;;;;10.10;99.90;;;;;;8377216;28;20020;-77
2023/04/07 21:14:00;;;;;;;;;;;10.10;99.90;;;;;;8379068;28;19928;-77
2023/04/07 21:18:02;;;;;;;;;;;10.10;99.90;;;;;;8366834;28;19925;-77
2023/04/07 21:22:04;;;;;;;;;;;10.10;99.90;;;;;;8385883;28;19932;-77
2023/04/07 21:26:06;;;;;;;;;;;10.10;99.90;;;;;;8398230;28;19924;-77
2023/04/07 21:30:08;;;;;;;;;;;10.10;99.90;;;;;;8396340;28;19936;-77
2023/04/07 21:34:09;;;;;;;;;;;10.10;99.90;;;;;;8390278;28;20373;-77
2023/04/07 21:38:11;;;;;;;;;;;10.10;99.90;;;;;;8383361;28;20269;-77
2023/04/07 21:42:13;;;;;;;;;;;10.10;99.90;;;;;;8385532;28;20391;-77
2023/04/07 21:46:15;;;;;;;;;;;10.10;99.90;;;;;;8369919;28;19929;-77
2023/04/07 21:50:17;;;;;;;;;;;10.10;99.90;;;;;;8376302;28;19924;-77
2023/04/07 21:54:19;;;;;;;;;;;10.10;99.90;;;;;;8373836;28;19928;-76
2023/04/07 21:58:36;;;;;;;;;;;10.00;99.90;;;;;;8452196;27;19916;-77
2023/04/07 22:02:37;;;;;;;;;;;10.00;99.90;;;;;;8412032;28;20060;-77
2023/04/07 22:06:39;;;;;;;;;;;10.00;99.90;;;;;;8422334;28;19973;-77
2023/04/07 22:10:41;;;;;;;;;;;10.00;99.90;;;;;;8413258;28;19976;-78
2023/04/07 22:24:50;;;;;;;;;;;10.00;99.90;;;;;;8402606;28;20040;-77
2023/04/07 22:33:55;;;;;;;;;;;10.00;99.90;;;;;;8405089;28;19918;-77
2023/04/07 22:37:57;;;;;;;;;;;10.00;99.90;;;;;;8425897;28;19963;-77
2023/04/07 22:41:58;;;;;;;;;;;10.00;99.90;;;;;;8393049;28;19932;-77
2023/04/07 22:46:00;;;;;;;;;;;10.00;99.90;;;;;;8407332;28;20460;-77
2023/04/07 22:50:02;;;;;;;;;;;10.00;99.90;;;;;;8408391;28;19932;-78
2023/04/07 22:54:03;;;;;;;;;;;10.00;99.90;;;;;;8438550;28;19928;-77
2023/04/07 22:58:05;;;;;;;;;;;10.00;99.90;;;;;;8409903;28;20938;-77
2023/04/07 23:02:07;;;;;;;;;;;10.00;99.90;;;;;;8411119;28;20002;-77
2023/04/07 23:06:08;;;;;;;;;;;10.00;99.90;;;;;;8398827;28;19931;-77
2023/04/07 23:10:10;;;;;;;;;;;10.00;99.90;;;;;;8385604;28;19928;-77
2023/04/07 23:14:12;;;;;;;;;;;10.00;99.90;;;;;;8392560;28;19931;-77
2023/04/07 23:23:18;;;;;;;;;;;10.00;99.90;;;;;;8384360;28;19919;-77
2023/04/07 23:27:19;;;;;;;;;;;9.90;99.90;;;;;;8386911;28;19925;-78
2023/04/07 23:31:21;;;;;;;;;;;9.90;99.90;;;;;;8386616;28;20319;-78
2023/04/07 23:35:23;;;;;;;;;;;9.90;99.90;;;;;;8388993;28;19935;-77
2023/04/07 23:39:24;;;;;;;;;;;9.80;99.90;;;;;;8391219;28;19939;-77
2023/04/07 23:43:26;;;;;;;;;;;9.80;99.90;;;;;;8393056;28;19946;-77
2023/04/07 23:47:27;;;;;;;;;;;9.70;99.90;;;;;;8398335;28;19939;-78
2023/04/07 23:51:29;;;;;;;;;;;9.60;99.90;;;;;;8415306;28;19925;-77
2023/04/07 23:55:31;;;;;;;;;;;9.60;99.90;;;;;;8397726;28;19925;-77
2023/04/07 23:59:32;;;;;;;;;;;9.60;99.90;;;;;;8417829;27;19963;-77
